Red Rock, Texas
Current Conditions -  °F | °C
As of 9:53 AM on Monday 22 Dec 2014 (Local Time) from KAUS Reporting Station
Broken Clouds Broken Clouds  
Wind Chill: 62°   Ceiling: 25000
Heat Index: 62°   Visibility: 10mi
Dew Point: 54°   Wind: 10mph
Humidity: 75%   Direction: 210°SSW
Pressure: 29.74"   Gusts: NA
Location:  29.96°N, 97.45°W
Report Text: KAUS 221553Z 21009KT 10SM FEW022 BKN250 17/12 A2974 RMK AO2 SLP068 T01670122
Loading
Personal Weather Stations






























Interactive Weather Map New forecast layout! Learn more

10-Day Weather Forecast

Advertisements
Track Severe Weather on mobile